Time;durP1;ratioP1;P1;durP2;ratioP2;P2;SDS_P1;SDS_P2;PMS_P1;PMS_P2;Temp;Humidity;BMP_temperature;BMP_pressure;BME280_temperature;BME280_humidity;BME280_pressure;Samples;Min_cycle;Max_cycle;Signal;HPM_P1;HPM_P2
2021/07/01 00:01:54;;;;;;;0.10;0.10;;;;;;;;;;5014650;28;20503;-71
2021/07/01 00:04:21;;;;;;;0.10;0.10;;;;;;;;;;5018233;28;20220;-71
2021/07/01 00:06:47;;;;;;;0.10;0.10;;;;;;;;;;5023529;28;20201;-71
2021/07/01 00:09:15;;;;;;;0.07;0.07;;;;;;;;;;5023170;28;20255;-71
2021/07/01 00:11:43;;;;;;;0.10;0.10;;;;;;;;;;5017823;28;20273;-71
2021/07/01 00:14:10;;;;;;;0.10;0.10;;;;;;;;;;5014918;28;20493;-71
2021/07/01 00:16:36;;;;;;;0.10;0.10;;;;;;;;;;5022926;28;20409;-71
2021/07/01 00:19:03;;;;;;;0.10;0.10;;;;;;;;;;5022923;28;20258;-72
2021/07/01 00:21:29;;;;;;;0.10;0.10;;;;;;;;;;5022756;28;20327;-72
2021/07/01 00:23:55;;;;;;;0.10;0.10;;;;;;;;;;5015214;28;20249;-72
2021/07/01 00:26:21;;;;;;;0.05;0.05;;;;;;;;;;5003509;28;20409;-71
2021/07/01 00:28:49;;;;;;;0.10;0.10;;;;;;;;;;5016048;28;20201;-72
2021/07/01 00:31:15;;;;;;;0.10;0.10;;;;;;;;;;5022906;28;20305;-72
2021/07/01 00:33:41;;;;;;;0.07;0.07;;;;;;;;;;5022928;28;20255;-72
2021/07/01 00:36:08;;;;;;;0.10;0.10;;;;;;;;;;5022757;28;20417;-71
2021/07/01 00:38:34;;;;;;;0.10;0.10;;;;;;;;;;5022260;28;20231;-71
2021/07/01 00:41:00;;;;;;;0.10;0.10;;;;;;;;;;5022632;28;20215;-71
2021/07/01 00:43:27;;;;;;;0.10;0.10;;;;;;;;;;5008689;28;20209;-71
2021/07/01 00:45:54;;;;;;;0.10;0.10;;;;;;;;;;5022267;28;20555;-71
2021/07/01 00:48:21;;;;;;;0.10;0.10;;;;;;;;;;5022711;28;20320;-72
2021/07/01 00:50:50;;;;;;;0.10;0.10;;;;;;;;;;5021346;28;20225;-71
2021/07/01 00:53:16;;;;;;;0.10;0.10;;;;;;;;;;5010528;28;20215;-71
2021/07/01 00:55:42;;;;;;;0.10;0.10;;;;;;;;;;5022659;28;20279;-72
2021/07/01 00:58:09;;;;;;;0.10;0.10;;;;;;;;;;5022432;28;20263;-71
2021/07/01 01:00:46;;;;;;;0.08;0.08;;;;;;;;;;5022390;28;20283;-70
2021/07/01 01:03:13;;;;;;;0.10;0.10;;;;;;;;;;5022465;28;20207;-72
2021/07/01 01:05:40;;;;;;;0.10;0.10;;;;;;;;;;5022504;28;20438;-72
2021/07/01 01:08:06;;;;;;;0.00;0.00;;;;;;;;;;5022441;28;20259;-71
2021/07/01 01:10:32;;;;;;;0.00;0.00;;;;;;;;;;5022471;28;20359;-72
2021/07/01 01:12:59;;;;;;;0.00;0.00;;;;;;;;;;5006428;28;20210;-72
2021/07/01 01:15:26;;;;;;;0.10;0.10;;;;;;;;;;5010180;28;20262;-72
2021/07/01 01:17:52;;;;;;;0.10;0.10;;;;;;;;;;5016041;28;20345;-71
2021/07/01 01:20:20;;;;;;;0.10;0.10;;;;;;;;;;5022142;28;20205;-72
2021/07/01 01:22:48;;;;;;;0.10;0.10;;;;;;;;;;5022326;28;20207;-71
2021/07/01 01:25:14;;;;;;;0.00;0.00;;;;;;;;;;5003572;28;20226;-71
2021/07/01 01:27:40;;;;;;;0.10;0.10;;;;;;;;;;5016889;28;20431;-71
2021/07/01 01:30:08;;;;;;;0.10;0.10;;;;;;;;;;5023149;28;20226;-72
2021/07/01 01:32:34;;;;;;;0.10;0.10;;;;;;;;;;5006253;28;20226;-72
2021/07/01 01:35:00;;;;;;;0.10;0.10;;;;;;;;;;5021781;28;20274;-71
2021/07/01 01:37:27;;;;;;;0.10;0.10;;;;;;;;;;5026179;28;20423;-72
2021/07/01 01:39:54;;;;;;;0.10;0.10;;;;;;;;;;5026033;28;20207;-71
2021/07/01 01:42:21;;;;;;;0.00;0.00;;;;;;;;;;5025578;28;20210;-71
2021/07/01 01:44:47;;;;;;;0.10;0.10;;;;;;;;;;5025764;28;20206;-72
2021/07/01 01:47:14;;;;;;;0.10;0.10;;;;;;;;;;5025918;28;20203;-71
2021/07/01 01:49:43;;;;;;;0.00;0.00;;;;;;;;;;5025952;28;20202;-71
2021/07/01 01:52:09;;;;;;;0.10;0.10;;;;;;;;;;5025730;28;20211;-71
2021/07/01 01:54:36;;;;;;;0.00;0.00;;;;;;;;;;5025805;28;20221;-71
2021/07/01 01:57:03;;;;;;;0.10;0.10;;;;;;;;;;5025823;28;20244;-71
2021/07/01 01:59:30;;;;;;;0.03;0.03;;;;;;;;;;5025536;28;20451;-71
2021/07/01 02:01:56;;;;;;;0.03;0.03;;;;;;;;;;5025516;28;20269;-71
2021/07/01 02:04:22;;;;;;;0.03;0.03;;;;;;;;;;5025429;28;20255;-71
2021/07/01 02:06:48;;;;;;;0.00;0.00;;;;;;;;;;5025959;28;20446;-71
2021/07/01 02:09:15;;;;;;;0.10;0.10;;;;;;;;;;5025529;28;20213;-71
2021/07/01 02:11:41;;;;;;;0.10;0.10;;;;;;;;;;5025332;28;20229;-71
2021/07/01 02:14:09;;;;;;;0.10;0.10;;;;;;;;;;5025300;28;20252;-70
2021/07/01 02:16:35;;;;;;;0.10;0.10;;;;;;;;;;5021362;28;20220;-71
2021/07/01 02:19:01;;;;;;;0.00;0.00;;;;;;;;;;5015244;28;20232;-71
2021/07/01 02:21:27;;;;;;;0.10;0.10;;;;;;;;;;5023449;28;20204;-70
2021/07/01 02:23:53;;;;;;;0.10;0.10;;;;;;;;;;5005584;28;20212;-71
2021/07/01 02:26:20;;;;;;;0.05;0.05;;;;;;;;;;5005330;28;20242;-71
2021/07/01 02:28:46;;;;;;;0.10;0.10;;;;;;;;;;5011333;28;20247;-70
2021/07/01 02:31:14;;;;;;;0.10;0.10;;;;;;;;;;5023993;28;20232;-70
2021/07/01 02:33:40;;;;;;;0.10;0.10;;;;;;;;;;5025028;28;20342;-71
2021/07/01 02:36:06;;;;;;;0.10;0.10;;;;;;;;;;5025203;28;20262;-70
2021/07/01 02:38:33;;;;;;;0.10;0.10;;;;;;;;;;5024695;28;20218;-71
2021/07/01 02:40:59;;;;;;;0.10;0.10;;;;;;;;;;5024593;28;20204;-70
2021/07/01 02:43:25;;;;;;;0.07;0.07;;;;;;;;;;5005645;28;20470;-70
2021/07/01 02:45:52;;;;;;;0.10;0.10;;;;;;;;;;5017547;28;20425;-70
2021/07/01 02:48:19;;;;;;;0.10;0.10;;;;;;;;;;5024711;28;20268;-71
2021/07/01 02:50:45;;;;;;;0.03;0.03;;;;;;;;;;5014419;28;20265;-71
2021/07/01 02:53:12;;;;;;;0.07;0.07;;;;;;;;;;5005074;28;20266;-72
2021/07/01 02:55:38;;;;;;;0.10;0.10;;;;;;;;;;5013365;28;20205;-71
2021/07/01 02:58:05;;;;;;;0.03;0.03;;;;;;;;;;5024629;28;20554;-71
2021/07/01 03:00:31;;;;;;;0.10;0.10;;;;;;;;;;5024277;28;20215;-71
2021/07/01 03:02:58;;;;;;;0.00;0.00;;;;;;;;;;5024274;28;20205;-72
2021/07/01 03:05:25;;;;;;;0.07;0.07;;;;;;;;;;5020322;28;20428;-71
2021/07/01 03:07:52;;;;;;;0.10;0.10;;;;;;;;;;5015635;28;20219;-71
2021/07/01 03:10:18;;;;;;;0.10;0.10;;;;;;;;;;5024353;28;20217;-71
2021/07/01 03:12:44;;;;;;;0.10;0.10;;;;;;;;;;5024306;28;20205;-72
2021/07/01 03:15:11;;;;;;;0.10;0.10;;;;;;;;;;5024148;28;20262;-72
2021/07/01 03:17:38;;;;;;;0.10;0.10;;;;;;;;;;5023768;28;20207;-72
2021/07/01 03:20:05;;;;;;;0.20;0.20;;;;;;;;;;5024172;28;20229;-70
2021/07/01 03:22:32;;;;;;;0.10;0.10;;;;;;;;;;5023882;28;20291;-71
2021/07/01 03:24:59;;;;;;;0.10;0.10;;;;;;;;;;5023835;28;20225;-71
2021/07/01 03:27:25;;;;;;;0.03;0.03;;;;;;;;;;5023919;28;20255;-71
2021/07/01 03:29:51;;;;;;;0.10;0.10;;;;;;;;;;5014338;28;20252;-71
2021/07/01 03:32:17;;;;;;;0.10;0.10;;;;;;;;;;5019743;28;20504;-71
2021/07/01 03:34:44;;;;;;;0.10;0.10;;;;;;;;;;5015760;28;20211;-71
2021/07/01 03:37:10;;;;;;;0.10;0.10;;;;;;;;;;5017882;28;20432;-71
2021/07/01 03:39:38;;;;;;;0.00;0.00;;;;;;;;;;5009557;28;20204;-71
2021/07/01 03:42:05;;;;;;;0.10;0.10;;;;;;;;;;5023313;28;20275;-71
2021/07/01 03:44:31;;;;;;;0.10;0.10;;;;;;;;;;5023583;28;20399;-71
2021/07/01 03:46:57;;;;;;;0.10;0.10;;;;;;;;;;5023448;28;20510;-71
2021/07/01 03:49:23;;;;;;;0.10;0.10;;;;;;;;;;5022375;28;20280;-71
2021/07/01 03:51:50;;;;;;;0.10;0.10;;;;;;;;;;5023283;28;20223;-71
2021/07/01 03:54:16;;;;;;;0.10;0.10;;;;;;;;;;5023456;28;20445;-71
2021/07/01 03:56:44;;;;;;;0.10;0.10;;;;;;;;;;5023123;28;20279;-71
2021/07/01 03:59:10;;;;;;;0.10;0.10;;;;;;;;;;5022892;28;20249;-70
2021/07/01 04:01:37;;;;;;;0.10;0.10;;;;;;;;;;5023180;28;20501;-71
2021/07/01 04:04:03;;;;;;;0.10;0.10;;;;;;;;;;5022871;28;20214;-71
2021/07/01 04:06:29;;;;;;;0.03;0.03;;;;;;;;;;5022780;28;20210;-71
2021/07/01 04:08:56;;;;;;;0.03;0.03;;;;;;;;;;5014331;28;20244;-70
2021/07/01 04:11:22;;;;;;;0.10;0.10;;;;;;;;;;5016347;28;20355;-71
2021/07/01 04:13:50;;;;;;;0.03;0.03;;;;;;;;;;5021541;28;20209;-71
2021/07/01 04:16:16;;;;;;;0.10;0.10;;;;;;;;;;5022016;28;20274;-71
2021/07/01 04:18:42;;;;;;;0.07;0.07;;;;;;;;;;5019443;28;20242;-71
2021/07/01 04:21:08;;;;;;;0.10;0.10;;;;;;;;;;5022198;28;20242;-71
2021/07/01 04:23:35;;;;;;;0.00;0.00;;;;;;;;;;5021456;28;20213;-71
2021/07/01 04:26:01;;;;;;;0.03;0.03;;;;;;;;;;5019733;28;20425;-71
2021/07/01 04:28:27;;;;;;;0.10;0.10;;;;;;;;;;5019955;28;20494;-70
2021/07/01 04:30:59;;;;;;;0.10;0.10;;;;;;;;;;5017369;28;20229;-71
2021/07/01 04:33:25;;;;;;;0.10;0.10;;;;;;;;;;5017625;28;20450;-71
2021/07/01 04:35:51;;;;;;;0.00;0.00;;;;;;;;;;5022451;28;20240;-70
2021/07/01 04:38:18;;;;;;;0.10;0.10;;;;;;;;;;5012406;28;20250;-71
2021/07/01 04:40:44;;;;;;;0.10;0.10;;;;;;;;;;5014455;28;20430;-71
2021/07/01 04:43:10;;;;;;;0.10;0.10;;;;;;;;;;5011836;28;20212;-71
2021/07/01 04:45:37;;;;;;;0.10;0.10;;;;;;;;;;5019284;28;20204;-71
2021/07/01 04:48:06;;;;;;;0.10;0.10;;;;;;;;;;5016400;28;20301;-71
2021/07/01 04:50:33;;;;;;;0.10;0.10;;;;;;;;;;5020873;28;20277;-71
2021/07/01 04:52:59;;;;;;;0.10;0.10;;;;;;;;;;5014982;28;20326;-71
2021/07/01 04:55:25;;;;;;;0.10;0.10;;;;;;;;;;5022112;28;20211;-72
2021/07/01 04:57:52;;;;;;;0.10;0.10;;;;;;;;;;5016839;28;20241;-71
2021/07/01 05:00:18;;;;;;;0.10;0.10;;;;;;;;;;5008518;28;20209;-70
2021/07/01 05:02:44;;;;;;;0.10;0.10;;;;;;;;;;5016738;28;20202;-71
2021/07/01 05:05:12;;;;;;;0.10;0.10;;;;;;;;;;5001654;28;20211;-71
2021/07/01 05:07:41;;;;;;;0.10;0.10;;;;;;;;;;5014695;28;20218;-72
2021/07/01 05:10:07;;;;;;;0.00;0.00;;;;;;;;;;5008074;28;20258;-71
2021/07/01 05:12:34;;;;;;;0.10;0.10;;;;;;;;;;5022021;28;20237;-71
2021/07/01 05:15:00;;;;;;;0.10;0.10;;;;;;;;;;5019818;28;20338;-71
2021/07/01 05:17:26;;;;;;;0.10;0.10;;;;;;;;;;5011322;28;20207;-71
2021/07/01 05:19:52;;;;;;;0.10;0.10;;;;;;;;;;5022085;28;20450;-70
2021/07/01 05:22:20;;;;;;;0.03;0.03;;;;;;;;;;5022306;28;20253;-71
2021/07/01 05:24:46;;;;;;;0.10;0.10;;;;;;;;;;5021893;28;20286;-71
2021/07/01 05:27:12;;;;;;;0.10;0.10;;;;;;;;;;5018085;28;20470;-71
2021/07/01 05:29:39;;;;;;;0.10;0.10;;;;;;;;;;5013515;28;20207;-72
2021/07/01 05:32:06;;;;;;;0.10;0.10;;;;;;;;;;5022386;28;20276;-72
2021/07/01 05:34:32;;;;;;;0.10;0.10;;;;;;;;;;5022018;28;20420;-71
2021/07/01 05:36:58;;;;;;;0.10;0.10;;;;;;;;;;5021961;28;20258;-71
2021/07/01 05:39:26;;;;;;;0.10;0.10;;;;;;;;;;5021981;28;20265;-72
2021/07/01 05:41:52;;;;;;;0.00;0.00;;;;;;;;;;5022212;28;20222;-72
2021/07/01 05:44:19;;;;;;;0.10;0.10;;;;;;;;;;5020168;28;20497;-72
2021/07/01 05:46:45;;;;;;;0.10;0.10;;;;;;;;;;5009892;28;20264;-72
2021/07/01 05:49:12;;;;;;;0.10;0.10;;;;;;;;;;5022062;28;20253;-72
2021/07/01 05:51:39;;;;;;;0.10;0.10;;;;;;;;;;5008383;28;20404;-73
2021/07/01 05:54:13;;;;;;;0.10;0.10;;;;;;;;;;5022237;28;20207;-72
2021/07/01 05:56:40;;;;;;;0.10;0.10;;;;;;;;;;5002653;28;20203;-71
2021/07/01 05:59:07;;;;;;;0.10;0.10;;;;;;;;;;5002764;28;20212;-73
2021/07/01 06:01:34;;;;;;;0.10;0.10;;;;;;;;;;5014680;28;20203;-72
2021/07/01 06:04:02;;;;;;;0.10;0.10;;;;;;;;;;5021892;28;20216;-73
2021/07/01 06:06:29;;;;;;;0.10;0.10;;;;;;;;;;5016550;28;20209;-72
2021/07/01 06:08:57;;;;;;;0.10;0.10;;;;;;;;;;5007783;28;20376;-73
2021/07/01 06:11:24;;;;;;;0.10;0.10;;;;;;;;;;5015283;28;20269;-72
2021/07/01 06:13:51;;;;;;;0.10;0.10;;;;;;;;;;5014822;28;20325;-71
2021/07/01 06:16:18;;;;;;;0.07;0.07;;;;;;;;;;5015465;28;20265;-72
2021/07/01 06:18:44;;;;;;;0.10;0.10;;;;;;;;;;5021390;28;20203;-72
2021/07/01 06:21:11;;;;;;;0.10;0.10;;;;;;;;;;5009013;28;20212;-73
2021/07/01 06:23:38;;;;;;;0.10;0.10;;;;;;;;;;5021069;28;20207;-72
2021/07/01 06:26:04;;;;;;;0.10;0.10;;;;;;;;;;5019607;28;20374;-71
2021/07/01 06:28:33;;;;;;;0.10;0.10;;;;;;;;;;5007512;28;20271;-73
2021/07/01 06:31:01;;;;;;;0.10;0.10;;;;;;;;;;5020887;28;20383;-72
2021/07/01 06:33:27;;;;;;;0.10;0.10;;;;;;;;;;5024025;28;20461;-73
2021/07/01 06:35:55;;;;;;;0.10;0.10;;;;;;;;;;5024916;28;20214;-69
2021/07/01 06:38:23;;;;;;;0.03;0.03;;;;;;;;;;5024635;28;20210;-71
2021/07/01 06:40:50;;;;;;;0.10;0.10;;;;;;;;;;5023749;28;20391;-73
2021/07/01 06:43:19;;;;;;;0.03;0.03;;;;;;;;;;5012463;28;20244;-72
2021/07/01 06:45:46;;;;;;;0.10;0.10;;;;;;;;;;5011571;28;20420;-73
2021/07/01 06:48:15;;;;;;;0.10;0.10;;;;;;;;;;5024478;28;20211;-72
2021/07/01 06:50:41;;;;;;;0.03;0.03;;;;;;;;;;5024982;28;20238;-72
2021/07/01 06:53:08;;;;;;;0.10;0.10;;;;;;;;;;5023325;28;20259;-72
2021/07/01 06:55:34;;;;;;;0.10;0.10;;;;;;;;;;5013677;28;20299;-72
2021/07/01 06:58:01;;;;;;;0.10;0.10;;;;;;;;;;5021800;28;20271;-73
2021/07/01 07:00:27;;;;;;;0.03;0.03;;;;;;;;;;5023938;28;20209;-73
2021/07/01 07:02:53;;;;;;;0.10;0.10;;;;;;;;;;5011462;28;20503;-71
2021/07/01 07:05:21;;;;;;;0.10;0.10;;;;;;;;;;5017710;28;20275;-71
2021/07/01 07:07:48;;;;;;;0.03;0.03;;;;;;;;;;5018322;28;20207;-73
2021/07/01 07:10:15;;;;;;;0.00;0.00;;;;;;;;;;5023122;28;20468;-72
2021/07/01 07:12:43;;;;;;;0.10;0.10;;;;;;;;;;5024202;28;20290;-72
2021/07/01 07:15:10;;;;;;;0.00;0.00;;;;;;;;;;5017464;28;20238;-73
2021/07/01 07:17:37;;;;;;;0.10;0.10;;;;;;;;;;5015602;28;20208;-72
2021/07/01 07:20:04;;;;;;;0.10;0.10;;;;;;;;;;5014421;28;20213;-72
2021/07/01 07:22:35;;;;;;;0.10;0.10;;;;;;;;;;5013039;28;20384;-72
2021/07/01 07:25:02;;;;;;;0.10;0.10;;;;;;;;;;5003537;28;20448;-72
2021/07/01 07:27:30;;;;;;;0.00;0.00;;;;;;;;;;5004722;28;20271;-72
2021/07/01 07:29:56;;;;;;;0.10;0.10;;;;;;;;;;5004776;28;20209;-72
2021/07/01 07:32:24;;;;;;;0.10;0.10;;;;;;;;;;5009537;28;20536;-73
2021/07/01 07:34:50;;;;;;;0.10;0.10;;;;;;;;;;5006414;28;20214;-71
2021/07/01 07:37:17;;;;;;;0.10;0.10;;;;;;;;;;5011830;28;20321;-73
2021/07/01 07:39:45;;;;;;;0.10;0.10;;;;;;;;;;5023845;28;20209;-72
2021/07/01 07:42:12;;;;;;;0.10;0.10;;;;;;;;;;5023861;28;20216;-72
2021/07/01 07:44:39;;;;;;;0.10;0.10;;;;;;;;;;5023689;28;20317;-72
2021/07/01 07:47:06;;;;;;;0.10;0.10;;;;;;;;;;5024104;28;20386;-72
2021/07/01 07:49:32;;;;;;;0.10;0.10;;;;;;;;;;5022407;28;20227;-72
2021/07/01 07:52:02;;;;;;;0.10;0.10;;;;;;;;;;5023996;28;20410;-72
2021/07/01 07:54:29;;;;;;;0.00;0.00;;;;;;;;;;5023697;28;20201;-73
2021/07/01 07:56:57;;;;;;;0.03;0.03;;;;;;;;;;5023440;28;20212;-72
2021/07/01 07:59:26;;;;;;;0.10;0.10;;;;;;;;;;5010079;28;20254;-71
2021/07/01 08:01:52;;;;;;;0.10;0.10;;;;;;;;;;5016326;28;20202;-71
2021/07/01 08:04:21;;;;;;;0.10;0.10;;;;;;;;;;5010974;28;20261;-72
2021/07/01 08:06:48;;;;;;;0.10;0.10;;;;;;;;;;5011332;28;20210;-71
2021/07/01 08:09:17;;;;;;;0.10;0.10;;;;;;;;;;5017920;28;20233;-72
2021/07/01 08:11:44;;;;;;;0.10;0.10;;;;;;;;;;5016642;28;20203;-72
2021/07/01 08:14:12;;;;;;;0.07;0.07;;;;;;;;;;5015093;28;20224;-72
2021/07/01 08:16:39;;;;;;;0.10;0.10;;;;;;;;;;5015097;28;20278;-70
2021/07/01 08:19:05;;;;;;;0.10;0.10;;;;;;;;;;5014109;28;20221;-69
2021/07/01 08:21:32;;;;;;;0.00;0.00;;;;;;;;;;5022682;28;20207;-71
2021/07/01 08:23:58;;;;;;;0.10;0.10;;;;;;;;;;5018833;28;20205;-71
2021/07/01 08:26:25;;;;;;;0.10;0.10;;;;;;;;;;5021137;28;20226;-71
2021/07/01 08:28:52;;;;;;;0.00;0.00;;;;;;;;;;5022743;28;20223;-71
2021/07/01 08:31:19;;;;;;;0.00;0.00;;;;;;;;;;5022752;28;20254;-70
2021/07/01 08:33:46;;;;;;;0.00;0.00;;;;;;;;;;5020699;28;20231;-71
2021/07/01 08:36:14;;;;;;;0.10;0.10;;;;;;;;;;5022726;28;20213;-71
2021/07/01 08:38:41;;;;;;;0.10;0.10;;;;;;;;;;5021717;28;20549;-72
2021/07/01 08:41:14;;;;;;;0.10;0.10;;;;;;;;;;5022449;28;20221;-72
2021/07/01 08:43:42;;;;;;;0.10;0.10;;;;;;;;;;5013304;28;20204;-70
2021/07/01 08:46:13;;;;;;;0.10;0.10;;;;;;;;;;5022753;28;20488;-70
2021/07/01 08:48:49;;;;;;;0.10;0.10;;;;;;;;;;5013256;28;20271;-72
2021/07/01 08:51:16;;;;;;;0.10;0.10;;;;;;;;;;5016751;28;20246;-71
2021/07/01 08:53:57;;;;;;;0.10;0.10;;;;;;;;;;5011722;28;20296;-70
2021/07/01 08:56:24;;;;;;;0.10;0.10;;;;;;;;;;5022962;28;20203;-70
2021/07/01 08:58:53;;;;;;;0.10;0.10;;;;;;;;;;5022600;28;20203;-72
2021/07/01 09:01:21;;;;;;;0.10;0.10;;;;;;;;;;5022456;28;20262;-72
2021/07/01 09:03:50;;;;;;;0.10;0.10;;;;;;;;;;5022578;28;20407;-69
2021/07/01 09:06:18;;;;;;;0.10;0.10;;;;;;;;;;5022874;28;20501;-69
2021/07/01 09:08:46;;;;;;;0.10;0.10;;;;;;;;;;5022712;28;20214;-72
2021/07/01 09:11:16;;;;;;;0.10;0.10;;;;;;;;;;5022276;28;20495;-72
2021/07/01 09:13:45;;;;;;;0.10;0.10;;;;;;;;;;5022290;28;20536;-71
2021/07/01 09:16:13;;;;;;;0.10;0.10;;;;;;;;;;5022119;28;20267;-72
2021/07/01 09:18:40;;;;;;;0.10;0.10;;;;;;;;;;5022280;28;20208;-72
2021/07/01 09:21:09;;;;;;;0.10;0.10;;;;;;;;;;5022442;28;20513;-72
2021/07/01 09:23:37;;;;;;;0.10;0.10;;;;;;;;;;5022389;28;20202;-72
2021/07/01 09:26:04;;;;;;;0.10;0.10;;;;;;;;;;5022348;28;20333;-71
2021/07/01 09:28:30;;;;;;;0.10;0.10;;;;;;;;;;5020195;28;20282;-71
2021/07/01 09:30:57;;;;;;;0.10;0.10;;;;;;;;;;5014989;28;20211;-71
2021/07/01 09:33:24;;;;;;;0.10;0.10;;;;;;;;;;5016551;28;20535;-72
2021/07/01 09:35:52;;;;;;;0.03;0.03;;;;;;;;;;5022704;28;20226;-72
2021/07/01 09:38:21;;;;;;;0.10;0.10;;;;;;;;;;5022294;28;20239;-70
2021/07/01 09:40:48;;;;;;;0.10;0.10;;;;;;;;;;5021547;28;20265;-71
2021/07/01 09:43:17;;;;;;;0.00;0.00;;;;;;;;;;5011457;28;20201;-71
2021/07/01 09:45:44;;;;;;;0.10;0.10;;;;;;;;;;5020054;28;20240;-69
2021/07/01 09:48:11;;;;;;;0.03;0.03;;;;;;;;;;5020576;28;20206;-72
2021/07/01 09:50:39;;;;;;;0.10;0.10;;;;;;;;;;5025480;28;20258;-72
2021/07/01 09:53:06;;;;;;;0.10;0.10;;;;;;;;;;5022612;28;20302;-71
2021/07/01 09:55:33;;;;;;;0.10;0.10;;;;;;;;;;5025419;28;20216;-72
2021/07/01 09:58:03;;;;;;;0.10;0.10;;;;;;;;;;5025263;28;20387;-71
2021/07/01 10:00:31;;;;;;;0.03;0.03;;;;;;;;;;5017673;28;20502;-70
2021/07/01 10:03:04;;;;;;;0.10;0.10;;;;;;;;;;5007360;28;20205;-70
2021/07/01 10:05:31;;;;;;;0.10;0.10;;;;;;;;;;5025619;28;20205;-72
2021/07/01 10:07:57;;;;;;;0.10;0.10;;;;;;;;;;5025927;28;20206;-69
2021/07/01 10:10:24;;;;;;;0.10;0.10;;;;;;;;;;5022677;28;20266;-68
2021/07/01 10:12:52;;;;;;;0.10;0.10;;;;;;;;;;5017443;28;20226;-69
2021/07/01 10:15:26;;;;;;;0.10;0.10;;;;;;;;;;5021129;28;20253;-71
2021/07/01 10:18:03;;;;;;;0.00;0.00;;;;;;;;;;5018835;28;20395;-71
2021/07/01 10:20:31;;;;;;;0.10;0.10;;;;;;;;;;5024744;28;20282;-69
2021/07/01 10:22:59;;;;;;;0.10;0.10;;;;;;;;;;5024282;28;20506;-68
2021/07/01 10:25:28;;;;;;;0.10;0.10;;;;;;;;;;5018204;28;20326;-67
2021/07/01 10:27:57;;;;;;;0.10;0.10;;;;;;;;;;5022013;28;20564;-68
2021/07/01 10:30:24;;;;;;;0.10;0.10;;;;;;;;;;5024000;28;20261;-69
2021/07/01 10:32:51;;;;;;;0.10;0.10;;;;;;;;;;5019042;28;20540;-69
2021/07/01 10:35:22;;;;;;;0.10;0.10;;;;;;;;;;5024145;28;20328;-68
2021/07/01 10:37:59;;;;;;;0.10;0.10;;;;;;;;;;5022585;28;20281;-68
2021/07/01 10:40:26;;;;;;;0.10;0.10;;;;;;;;;;5024677;28;20214;-67
2021/07/01 10:42:55;;;;;;;0.10;0.10;;;;;;;;;;5017275;28;20237;-68
2021/07/01 10:45:22;;;;;;;0.10;0.10;;;;;;;;;;5022643;28;20206;-68
2021/07/01 10:47:49;;;;;;;0.10;0.10;;;;;;;;;;5016718;28;20251;-68
2021/07/01 10:50:27;;;;;;;0.00;0.00;;;;;;;;;;5022014;28;20333;-68
2021/07/01 10:52:53;;;;;;;2.43;2.33;;;;;;;;;;5018463;28;20281;-68
2021/07/01 10:55:20;;;;;;;0.10;0.10;;;;;;;;;;5017639;28;20219;-70
2021/07/01 10:57:47;;;;;;;0.00;0.00;;;;;;;;;;5024661;28;20500;-67
2021/07/01 11:00:13;;;;;;;0.10;0.10;;;;;;;;;;5018063;28;20207;-67
2021/07/01 11:02:46;;;;;;;0.10;0.10;;;;;;;;;;5007337;28;20206;-70
2021/07/01 11:05:12;;;;;;;0.10;0.10;;;;;;;;;;5020680;28;20269;-71
2021/07/01 11:07:42;;;;;;;0.10;0.10;;;;;;;;;;5024792;28;20257;-71
2021/07/01 11:10:09;;;;;;;0.10;0.10;;;;;;;;;;5020056;28;20256;-72
2021/07/01 11:12:41;;;;;;;0.10;0.10;;;;;;;;;;5006582;28;20253;-71
2021/07/01 11:15:08;;;;;;;0.10;0.10;;;;;;;;;;5009079;28;20569;-72
2021/07/01 11:17:34;;;;;;;0.10;0.10;;;;;;;;;;5012413;28;20195;-72
2021/07/01 11:20:13;;;;;;;0.10;0.10;;;;;;;;;;5023040;28;20209;-72
2021/07/01 11:22:47;;;;;;;0.00;0.00;;;;;;;;;;5012861;28;20316;-71
2021/07/01 11:25:26;;;;;;;0.03;0.03;;;;;;;;;;5018610;28;20233;-74
2021/07/01 11:27:52;;;;;;;0.10;0.10;;;;;;;;;;5014643;28;20374;-73
2021/07/01 11:30:23;;;;;;;0.10;0.10;;;;;;;;;;5023922;28;20233;-73
2021/07/01 11:32:49;;;;;;;0.10;0.10;;;;;;;;;;5013208;28;20294;-72
2021/07/01 11:35:24;;;;;;;0.07;0.07;;;;;;;;;;5024535;28;20257;-72
2021/07/01 11:37:53;;;;;;;0.10;0.10;;;;;;;;;;5016168;28;20205;-72
2021/07/01 11:40:21;;;;;;;0.10;0.10;;;;;;;;;;5023678;28;20243;-72
2021/07/01 11:42:49;;;;;;;0.10;0.10;;;;;;;;;;5010150;28;20209;-73
2021/07/01 11:45:15;;;;;;;0.10;0.10;;;;;;;;;;5024032;28;20236;-74
2021/07/01 11:47:42;;;;;;;0.10;0.10;;;;;;;;;;5023454;28;20206;-73
2021/07/01 11:50:09;;;;;;;0.10;0.10;;;;;;;;;;5023542;28;20214;-72
2021/07/01 11:52:38;;;;;;;0.10;0.10;;;;;;;;;;5017230;28;20250;-72
2021/07/01 11:55:05;;;;;;;0.10;0.10;;;;;;;;;;5023547;28;20540;-71
2021/07/01 11:57:31;;;;;;;0.10;0.10;;;;;;;;;;5024090;28;20247;-73
2021/07/01 11:59:58;;;;;;;0.10;0.10;;;;;;;;;;5023124;28;20198;-73
2021/07/01 12:02:25;;;;;;;0.10;0.10;;;;;;;;;;5023653;28;20370;-73
2021/07/01 12:04:52;;;;;;;0.10;0.10;;;;;;;;;;5023386;28;20205;-72
2021/07/01 12:07:22;;;;;;;0.10;0.10;;;;;;;;;;5020317;28;20210;-72
2021/07/01 12:09:50;;;;;;;0.10;0.10;;;;;;;;;;5019068;28;20439;-74
2021/07/01 12:12:20;;;;;;;0.10;0.10;;;;;;;;;;5015512;28;20212;-73
2021/07/01 12:14:47;;;;;;;0.10;0.10;;;;;;;;;;5016923;28;20231;-73
2021/07/01 12:17:34;;;;;;;0.10;0.10;;;;;;;;;;5014837;28;20209;-68
2021/07/01 12:20:03;;;;;;;0.10;0.10;;;;;;;;;;5009411;28;20210;-68
2021/07/01 12:22:41;;;;;;;0.10;0.10;;;;;;;;;;5019078;28;20463;-67
2021/07/01 12:25:12;;;;;;;0.10;0.10;;;;;;;;;;5009983;28;20226;-68
2021/07/01 12:27:39;;;;;;;0.10;0.10;;;;;;;;;;5015213;28;20222;-68
2021/07/01 12:30:05;;;;;;;0.10;0.10;;;;;;;;;;5012635;28;20206;-68
2021/07/01 12:32:32;;;;;;;0.10;0.10;;;;;;;;;;5022825;28;20217;-68
2021/07/01 12:34:58;;;;;;;0.10;0.10;;;;;;;;;;5023336;28;20392;-68
2021/07/01 12:37:24;;;;;;;0.10;0.10;;;;;;;;;;5018819;28;20358;-67
2021/07/01 12:39:51;;;;;;;0.10;0.10;;;;;;;;;;5018827;28;20509;-67
2021/07/01 12:42:22;;;;;;;0.10;0.10;;;;;;;;;;5023291;28;20207;-66
2021/07/01 12:44:48;;;;;;;0.00;0.00;;;;;;;;;;5022852;28;20203;-68
2021/07/01 12:47:16;;;;;;;0.10;0.10;;;;;;;;;;5023098;28;20395;-67
2021/07/01 12:49:46;;;;;;;0.10;0.10;;;;;;;;;;5022337;28;20206;-68
2021/07/01 12:52:13;;;;;;;0.10;0.10;;;;;;;;;;5022138;28;20286;-67
2021/07/01 12:54:52;;;;;;;0.10;0.10;;;;;;;;;;5017438;28;20235;-68
2021/07/01 12:57:18;;;;;;;0.10;0.10;;;;;;;;;;5021797;28;20275;-67
2021/07/01 12:59:46;;;;;;;0.10;0.10;;;;;;;;;;5015310;28;20222;-67
2021/07/01 13:02:14;;;;;;;0.03;0.03;;;;;;;;;;5015723;28;20495;-65
2021/07/01 13:04:40;;;;;;;0.00;0.00;;;;;;;;;;5006574;28;20501;-66
2021/07/01 13:07:08;;;;;;;0.10;0.10;;;;;;;;;;5015292;28;20229;-67
2021/07/01 13:09:35;;;;;;;0.10;0.10;;;;;;;;;;5004502;28;20214;-66
2021/07/01 13:12:02;;;;;;;0.10;0.10;;;;;;;;;;5021947;28;20282;-66
2021/07/01 13:14:29;;;;;;;0.10;0.10;;;;;;;;;;5020711;28;20243;-67
2021/07/01 13:17:03;;;;;;;0.10;0.10;;;;;;;;;;5019492;28;20260;-67
2021/07/01 13:19:31;;;;;;;0.10;0.10;;;;;;;;;;5015818;28;20222;-66
2021/07/01 13:21:58;;;;;;;0.10;0.10;;;;;;;;;;5022355;28;20217;-67
2021/07/01 13:24:24;;;;;;;0.10;0.10;;;;;;;;;;5025144;28;20210;-66
2021/07/01 13:26:52;;;;;;;0.10;0.10;;;;;;;;;;5018354;28;20204;-67
2021/07/01 13:29:33;;;;;;;0.00;0.00;;;;;;;;;;5020474;28;20470;-65
2021/07/01 13:32:03;;;;;;;0.00;0.00;;;;;;;;;;5023556;28;20372;-66
2021/07/01 13:34:29;;;;;;;1.70;1.70;;;;;;;;;;5025009;28;20254;-66
2021/07/01 13:36:56;;;;;;;0.10;0.10;;;;;;;;;;5022679;28;20555;-66
2021/07/01 13:39:28;;;;;;;0.10;0.10;;;;;;;;;;5023632;28;20261;-66
2021/07/01 13:41:54;;;;;;;0.10;0.10;;;;;;;;;;5025904;28;20259;-67
2021/07/01 13:44:21;;;;;;;0.10;0.10;;;;;;;;;;5024287;28;20509;-66
2021/07/01 13:46:47;;;;;;;0.10;0.10;;;;;;;;;;5024198;28;20451;-67
2021/07/01 13:49:14;;;;;;;0.10;0.10;;;;;;;;;;5025651;28;20274;-66
2021/07/01 13:51:41;;;;;;;0.10;0.10;;;;;;;;;;5023489;28;20209;-66
2021/07/01 13:54:12;;;;;;;0.10;0.10;;;;;;;;;;5014321;28;20295;-66
2021/07/01 13:56:40;;;;;;;0.10;0.10;;;;;;;;;;5023311;28;20199;-66
2021/07/01 13:59:06;;;;;;;0.10;0.10;;;;;;;;;;5024387;28;20209;-66
2021/07/01 14:01:33;;;;;;;0.10;0.10;;;;;;;;;;5023645;28;20500;-66
2021/07/01 14:03:59;;;;;;;0.07;0.07;;;;;;;;;;5021066;28;20501;-67
2021/07/01 14:06:27;;;;;;;0.10;0.10;;;;;;;;;;5023911;28;20251;-67
2021/07/01 14:08:53;;;;;;;0.10;0.10;;;;;;;;;;5013579;28;20216;-67
2021/07/01 14:11:21;;;;;;;0.10;0.10;;;;;;;;;;5023837;28;20208;-66
2021/07/01 14:13:48;;;;;;;0.10;0.10;;;;;;;;;;5025192;28;20278;-67
2021/07/01 14:16:15;;;;;;;0.10;0.10;;;;;;;;;;5024840;28;20470;-67
2021/07/01 14:18:41;;;;;;;0.10;0.10;;;;;;;;;;5025004;28;20205;-67
2021/07/01 14:21:08;;;;;;;0.10;0.10;;;;;;;;;;5025064;28;20207;-68
2021/07/01 14:23:36;;;;;;;0.10;0.10;;;;;;;;;;5022325;28;20366;-67
2021/07/01 14:26:11;;;;;;;0.10;0.10;;;;;;;;;;5005438;28;20256;-67
2021/07/01 14:28:38;;;;;;;0.10;0.10;;;;;;;;;;5009441;28;20202;-67
2021/07/01 14:31:08;;;;;;;0.10;0.10;;;;;;;;;;5021085;28;20319;-67
2021/07/01 14:33:36;;;;;;;0.10;0.10;;;;;;;;;;5023274;28;20541;-66
2021/07/01 14:36:04;;;;;;;0.10;0.10;;;;;;;;;;5012713;28;20503;-67
2021/07/01 14:38:31;;;;;;;0.13;0.13;;;;;;;;;;5024993;28;20347;-68
2021/07/01 14:41:00;;;;;;;0.03;0.03;;;;;;;;;;5024338;28;20215;-68
2021/07/01 14:43:31;;;;;;;0.10;0.10;;;;;;;;;;5016599;28;20221;-68
2021/07/01 14:46:13;;;;;;;0.00;0.00;;;;;;;;;;5019400;28;20232;-69